sensor_id;sensor_type;location;lat;lon;timestamp;P1;durP1;ratioP1;P2;durP2;ratioP2
48679;SDS011;34475;51.658;5.634;2022-12-11T00:00:02;3.7;;;3.5;;
48679;SDS011;34475;51.658;5.634;2022-12-11T00:01:11;3.7;;;3.5;;
48679;SDS011;34475;51.658;5.634;2022-12-11T00:02:00;3.7;;;3.5;;
48679;SDS011;34475;51.658;5.634;2022-12-11T00:03:00;3.7;;;3.5;;
48679;SDS011;34475;51.658;5.634;2022-12-11T00:04:00;3.7;;;3.5;;
48679;SDS011;34475;51.658;5.634;2022-12-11T00:05:00;3.7;;;3.5;;
48679;SDS011;34475;51.658;5.634;2022-12-11T00:06:05;3.7;;;3.5;;
48679;SDS011;34475;51.658;5.634;2022-12-11T00:07:00;3.7;;;3.5;;
48679;SDS011;34475;51.658;5.634;2022-12-11T00:08:00;4.4;;;4.3;;
48679;SDS011;34475;51.658;5.634;2022-12-11T00:09:00;4.4;;;4.3;;
48679;SDS011;34475;51.658;5.634;2022-12-11T00:10:00;4.4;;;4.3;;
48679;SDS011;34475;51.658;5.634;2022-12-11T00:11:00;4.4;;;4.3;;
48679;SDS011;34475;51.658;5.634;2022-12-11T00:12:01;4.4;;;4.3;;
48679;SDS011;34475;51.658;5.634;2022-12-11T00:13:00;4.4;;;4.3;;
48679;SDS011;34475;51.658;5.634;2022-12-11T00:14:00;4.4;;;4.3;;
48679;SDS011;34475;51.658;5.634;2022-12-11T00:15:00;4.4;;;4.3;;
48679;SDS011;34475;51.658;5.634;2022-12-11T00:16:00;4.4;;;4.3;;
48679;SDS011;34475;51.658;5.634;2022-12-11T00:17:00;4.4;;;4.3;;
48679;SDS011;34475;51.658;5.634;2022-12-11T00:18:00;4.4;;;4.3;;
48679;SDS011;34475;51.658;5.634;2022-12-11T00:19:00;4.4;;;4.3;;
48679;SDS011;34475;51.658;5.634;2022-12-11T00:20:00;4.4;;;4.3;;
48679;SDS011;34475;51.658;5.634;2022-12-11T00:21:02;4.4;;;4.3;;
48679;SDS011;34475;51.658;5.634;2022-12-11T00:22:00;4.4;;;4.3;;
48679;SDS011;34475;51.658;5.634;2022-12-11T00:23:01;4.4;;;4.3;;
48679;SDS011;34475;51.658;5.634;2022-12-11T00:24:00;4.4;;;4.3;;
48679;SDS011;34475;51.658;5.634;2022-12-11T00:25:00;4.4;;;4.3;;
48679;SDS011;34475;51.658;5.634;2022-12-11T00:26:04;4.4;;;4.3;;
48679;SDS011;34475;51.658;5.634;2022-12-11T00:27:00;4.4;;;4.3;;
48679;SDS011;34475;51.658;5.634;2022-12-11T00:28:00;3.4;;;3.3;;
48679;SDS011;34475;51.658;5.634;2022-12-11T00:29:00;3.4;;;3.3;;
48679;SDS011;34475;51.658;5.634;2022-12-11T00:30:00;3.4;;;3.3;;
48679;SDS011;34475;51.658;5.634;2022-12-11T00:31:05;3.4;;;3.3;;
48679;SDS011;34475;51.658;5.634;2022-12-11T00:32:00;3.4;;;3.3;;
48679;SDS011;34475;51.658;5.634;2022-12-11T00:33:00;3.4;;;3.3;;
48679;SDS011;34475;51.658;5.634;2022-12-11T00:34:01;3.4;;;3.3;;
48679;SDS011;34475;51.658;5.634;2022-12-11T00:35:01;3.4;;;3.3;;
48679;SDS011;34475;51.658;5.634;2022-12-11T00:36:00;3.4;;;3.3;;
48679;SDS011;34475;51.658;5.634;2022-12-11T00:37:00;3.4;;;3.3;;
48679;SDS011;34475;51.658;5.634;2022-12-11T00:38:00;3.4;;;3.3;;
48679;SDS011;34475;51.658;5.634;2022-12-11T00:39:01;3.4;;;3.3;;
48679;SDS011;34475;51.658;5.634;2022-12-11T00:40:00;3.4;;;3.3;;
48679;SDS011;34475;51.658;5.634;2022-12-11T00:41:00;3.4;;;3.3;;
48679;SDS011;34475;51.658;5.634;2022-12-11T00:42:00;3.4;;;3.3;;
48679;SDS011;34475;51.658;5.634;2022-12-11T00:43:00;3.4;;;3.3;;
48679;SDS011;34475;51.658;5.634;2022-12-11T00:44:01;3.4;;;3.3;;
48679;SDS011;34475;51.658;5.634;2022-12-11T00:45:00;3.4;;;3.3;;
48679;SDS011;34475;51.658;5.634;2022-12-11T00:46:02;3.4;;;3.3;;
48679;SDS011;34475;51.658;5.634;2022-12-11T00:47:00;3.4;;;3.3;;
48679;SDS011;34475;51.658;5.634;2022-12-11T00:48:00;3.3;;;3.2;;
48679;SDS011;34475;51.658;5.634;2022-12-11T00:49:00;3.3;;;3.2;;
48679;SDS011;34475;51.658;5.634;2022-12-11T00:50:00;3.3;;;3.2;;
48679;SDS011;34475;51.658;5.634;2022-12-11T00:51:00;3.3;;;3.2;;
48679;SDS011;34475;51.658;5.634;2022-12-11T00:52:00;3.3;;;3.2;;
48679;SDS011;34475;51.658;5.634;2022-12-11T00:53:02;3.3;;;3.2;;
48679;SDS011;34475;51.658;5.634;2022-12-11T00:54:00;3.3;;;3.2;;
48679;SDS011;34475;51.658;5.634;2022-12-11T00:55:00;3.3;;;3.2;;
48679;SDS011;34475;51.658;5.634;2022-12-11T00:56:00;3.3;;;3.2;;
48679;SDS011;34475;51.658;5.634;2022-12-11T00:57:01;3.3;;;3.2;;
48679;SDS011;34475;51.658;5.634;2022-12-11T00:58:00;3.3;;;3.2;;
48679;SDS011;34475;51.658;5.634;2022-12-11T00:59:00;3.3;;;3.2;;
48679;SDS011;34475;51.658;5.634;2022-12-11T01:00:00;3.3;;;3.2;;
48679;SDS011;34475;51.658;5.634;2022-12-11T01:01:04;3.3;;;3.2;;
48679;SDS011;34475;51.658;5.634;2022-12-11T01:02:00;3.3;;;3.2;;
48679;SDS011;34475;51.658;5.634;2022-12-11T01:03:01;3.3;;;3.2;;
48679;SDS011;34475;51.658;5.634;2022-12-11T01:04:00;3.3;;;3.2;;
48679;SDS011;34475;51.658;5.634;2022-12-11T01:05:00;3.3;;;3.2;;
48679;SDS011;34475;51.658;5.634;2022-12-11T01:06:00;3.3;;;3.2;;
48679;SDS011;34475;51.658;5.634;2022-12-11T01:07:00;3.3;;;3.2;;
48679;SDS011;34475;51.658;5.634;2022-12-11T01:08:01;3.2;;;3.1;;
48679;SDS011;34475;51.658;5.634;2022-12-11T01:09:10;3.2;;;3.1;;
48679;SDS011;34475;51.658;5.634;2022-12-11T01:10:11;3.2;;;3.1;;
48679;SDS011;34475;51.658;5.634;2022-12-11T01:11:04;3.2;;;3.1;;
48679;SDS011;34475;51.658;5.634;2022-12-11T01:12:00;3.2;;;3.1;;
48679;SDS011;34475;51.658;5.634;2022-12-11T01:13:04;3.2;;;3.1;;
48679;SDS011;34475;51.658;5.634;2022-12-11T01:14:00;3.2;;;3.1;;
48679;SDS011;34475;51.658;5.634;2022-12-11T01:15:00;3.2;;;3.1;;
48679;SDS011;34475;51.658;5.634;2022-12-11T01:16:06;3.2;;;3.1;;
48679;SDS011;34475;51.658;5.634;2022-12-11T01:17:00;3.2;;;3.1;;
48679;SDS011;34475;51.658;5.634;2022-12-11T01:18:00;3.2;;;3.1;;
48679;SDS011;34475;51.658;5.634;2022-12-11T01:19:00;3.2;;;3.1;;
48679;SDS011;34475;51.658;5.634;2022-12-11T01:20:00;3.2;;;3.1;;
48679;SDS011;34475;51.658;5.634;2022-12-11T01:21:04;3.2;;;3.1;;
48679;SDS011;34475;51.658;5.634;2022-12-11T01:22:00;3.2;;;3.1;;
48679;SDS011;34475;51.658;5.634;2022-12-11T01:23:00;3.2;;;3.1;;
48679;SDS011;34475;51.658;5.634;2022-12-11T01:24:00;3.2;;;3.1;;
48679;SDS011;34475;51.658;5.634;2022-12-11T01:25:00;3.2;;;3.1;;
48679;SDS011;34475;51.658;5.634;2022-12-11T01:26:09;3.2;;;3.1;;
48679;SDS011;34475;51.658;5.634;2022-12-11T01:27:01;3.2;;;3.1;;
48679;SDS011;34475;51.658;5.634;2022-12-11T01:28:00;3.2;;;3.1;;
48679;SDS011;34475;51.658;5.634;2022-12-11T01:29:00;3.2;;;3.1;;
48679;SDS011;34475;51.658;5.634;2022-12-11T01:30:00;3.2;;;3.1;;
48679;SDS011;34475;51.658;5.634;2022-12-11T01:31:01;3.2;;;3.1;;
48679;SDS011;34475;51.658;5.634;2022-12-11T01:32:00;3.2;;;3.1;;
48679;SDS011;34475;51.658;5.634;2022-12-11T01:33:00;3.2;;;3.1;;
48679;SDS011;34475;51.658;5.634;2022-12-11T01:34:00;3.2;;;3.1;;
48679;SDS011;34475;51.658;5.634;2022-12-11T01:35:05;3.2;;;3.1;;
48679;SDS011;34475;51.658;5.634;2022-12-11T01:36:00;3.2;;;3.1;;
48679;SDS011;34475;51.658;5.634;2022-12-11T01:37:00;3.2;;;3.1;;
48679;SDS011;34475;51.658;5.634;2022-12-11T01:38:00;3.2;;;3.1;;
48679;SDS011;34475;51.658;5.634;2022-12-11T01:39:00;3.2;;;3.1;;
48679;SDS011;34475;51.658;5.634;2022-12-11T01:40:01;3.2;;;3.1;;
48679;SDS011;34475;51.658;5.634;2022-12-11T01:41:00;3.2;;;3.1;;
48679;SDS011;34475;51.658;5.634;2022-12-11T01:42:00;3.2;;;3.1;;
48679;SDS011;34475;51.658;5.634;2022-12-11T01:43:00;3.2;;;3.1;;
48679;SDS011;34475;51.658;5.634;2022-12-11T01:46:01;3.2;;;3.1;;
48679;SDS011;34475;51.658;5.634;2022-12-11T01:47:00;3.2;;;3.1;;
48679;SDS011;34475;51.658;5.634;2022-12-11T01:48:07;3.6;;;3.5;;
48679;SDS011;34475;51.658;5.634;2022-12-11T01:49:03;3.6;;;3.5;;
48679;SDS011;34475;51.658;5.634;2022-12-11T01:50:00;3.6;;;3.5;;
48679;SDS011;34475;51.658;5.634;2022-12-11T01:51:03;3.6;;;3.5;;
48679;SDS011;34475;51.658;5.634;2022-12-11T01:52:05;3.6;;;3.5;;
48679;SDS011;34475;51.658;5.634;2022-12-11T01:53:01;3.6;;;3.5;;
48679;SDS011;34475;51.658;5.634;2022-12-11T01:54:05;3.6;;;3.5;;
48679;SDS011;34475;51.658;5.634;2022-12-11T01:55:01;3.6;;;3.5;;
48679;SDS011;34475;51.658;5.634;2022-12-11T01:56:01;3.6;;;3.5;;
48679;SDS011;34475;51.658;5.634;2022-12-11T01:57:04;3.6;;;3.5;;
48679;SDS011;34475;51.658;5.634;2022-12-11T01:58:01;3.6;;;3.5;;
48679;SDS011;34475;51.658;5.634;2022-12-11T01:59:06;3.6;;;3.5;;
48679;SDS011;34475;51.658;5.634;2022-12-11T02:00:00;3.6;;;3.5;;
48679;SDS011;34475;51.658;5.634;2022-12-11T02:01:01;3.6;;;3.5;;
48679;SDS011;34475;51.658;5.634;2022-12-11T02:02:07;3.6;;;3.5;;
48679;SDS011;34475;51.658;5.634;2022-12-11T02:03:00;3.6;;;3.5;;
48679;SDS011;34475;51.658;5.634;2022-12-11T02:04:01;3.6;;;3.5;;
48679;SDS011;34475;51.658;5.634;2022-12-11T02:05:01;3.6;;;3.5;;
48679;SDS011;34475;51.658;5.634;2022-12-11T02:06:01;3.6;;;3.5;;
48679;SDS011;34475;51.658;5.634;2022-12-11T02:07:02;3.6;;;3.5;;
48679;SDS011;34475;51.658;5.634;2022-12-11T02:08:02;3.0;;;2.9;;
48679;SDS011;34475;51.658;5.634;2022-12-11T02:09:02;3.0;;;2.9;;
48679;SDS011;34475;51.658;5.634;2022-12-11T02:10:00;3.0;;;2.9;;
48679;SDS011;34475;51.658;5.634;2022-12-11T02:11:19;3.0;;;2.9;;
48679;SDS011;34475;51.658;5.634;2022-12-11T02:12:06;3.0;;;2.9;;
48679;SDS011;34475;51.658;5.634;2022-12-11T02:13:08;3.0;;;2.9;;
48679;SDS011;34475;51.658;5.634;2022-12-11T02:14:07;3.0;;;2.9;;
48679;SDS011;34475;51.658;5.634;2022-12-11T02:15:13;3.0;;;2.9;;
48679;SDS011;34475;51.658;5.634;2022-12-11T02:16:17;3.0;;;2.9;;
48679;SDS011;34475;51.658;5.634;2022-12-11T02:18:19;3.0;;;2.9;;
48679;SDS011;34475;51.658;5.634;2022-12-11T02:19:10;3.0;;;2.9;;
48679;SDS011;34475;51.658;5.634;2022-12-11T02:21:11;3.0;;;2.9;;
48679;SDS011;34475;51.658;5.634;2022-12-11T02:22:07;3.0;;;2.9;;
48679;SDS011;34475;51.658;5.634;2022-12-11T02:28:09;3.1;;;3.0;;
48679;SDS011;34475;51.658;5.634;2022-12-11T02:29:05;3.1;;;3.0;;
48679;SDS011;34475;51.658;5.634;2022-12-11T02:30:06;3.1;;;3.0;;
48679;SDS011;34475;51.658;5.634;2022-12-11T02:31:04;3.1;;;3.0;;
48679;SDS011;34475;51.658;5.634;2022-12-11T02:32:07;3.1;;;3.0;;
48679;SDS011;34475;51.658;5.634;2022-12-11T02:33:00;3.1;;;3.0;;
48679;SDS011;34475;51.658;5.634;2022-12-11T02:34:02;3.1;;;3.0;;
48679;SDS011;34475;51.658;5.634;2022-12-11T02:36:02;3.1;;;3.0;;
48679;SDS011;34475;51.658;5.634;2022-12-11T02:37:03;3.1;;;3.0;;
48679;SDS011;34475;51.658;5.634;2022-12-11T02:38:05;3.1;;;3.0;;
48679;SDS011;34475;51.658;5.634;2022-12-11T02:39:02;3.1;;;3.0;;
48679;SDS011;34475;51.658;5.634;2022-12-11T02:40:02;3.1;;;3.0;;
48679;SDS011;34475;51.658;5.634;2022-12-11T02:41:01;3.1;;;3.0;;
48679;SDS011;34475;51.658;5.634;2022-12-11T02:42:02;3.1;;;3.0;;
48679;SDS011;34475;51.658;5.634;2022-12-11T02:43:03;3.1;;;3.0;;
48679;SDS011;34475;51.658;5.634;2022-12-11T02:44:02;3.1;;;3.0;;
48679;SDS011;34475;51.658;5.634;2022-12-11T02:45:02;3.1;;;3.0;;
48679;SDS011;34475;51.658;5.634;2022-12-11T02:46:03;3.1;;;3.0;;
48679;SDS011;34475;51.658;5.634;2022-12-11T02:47:02;3.5;;;3.4;;
48679;SDS011;34475;51.658;5.634;2022-12-11T02:48:02;3.5;;;3.4;;
48679;SDS011;34475;51.658;5.634;2022-12-11T02:49:02;3.5;;;3.4;;
48679;SDS011;34475;51.658;5.634;2022-12-11T02:50:02;3.5;;;3.4;;
48679;SDS011;34475;51.658;5.634;2022-12-11T02:51:02;3.5;;;3.4;;
48679;SDS011;34475;51.658;5.634;2022-12-11T02:52:02;3.5;;;3.4;;
48679;SDS011;34475;51.658;5.634;2022-12-11T02:53:02;3.5;;;3.4;;
48679;SDS011;34475;51.658;5.634;2022-12-11T02:54:01;3.5;;;3.4;;
48679;SDS011;34475;51.658;5.634;2022-12-11T02:55:02;3.5;;;3.4;;
48679;SDS011;34475;51.658;5.634;2022-12-11T02:56:07;3.5;;;3.4;;
48679;SDS011;34475;51.658;5.634;2022-12-11T02:57:11;3.5;;;3.4;;
48679;SDS011;34475;51.658;5.634;2022-12-11T02:58:04;3.5;;;3.4;;
48679;SDS011;34475;51.658;5.634;2022-12-11T02:59:07;3.5;;;3.4;;
48679;SDS011;34475;51.658;5.634;2022-12-11T03:00:00;3.5;;;3.4;;
48679;SDS011;34475;51.658;5.634;2022-12-11T03:01:00;3.5;;;3.4;;
48679;SDS011;34475;51.658;5.634;2022-12-11T03:02:01;3.5;;;3.4;;
48679;SDS011;34475;51.658;5.634;2022-12-11T03:03:00;3.5;;;3.4;;
48679;SDS011;34475;51.658;5.634;2022-12-11T03:04:00;3.5;;;3.4;;
48679;SDS011;34475;51.658;5.634;2022-12-11T03:05:00;3.5;;;3.4;;
48679;SDS011;34475;51.658;5.634;2022-12-11T03:06:00;3.5;;;3.4;;
48679;SDS011;34475;51.658;5.634;2022-12-11T03:07:11;4.1;;;4.0;;
48679;SDS011;34475;51.658;5.634;2022-12-11T03:08:01;4.1;;;4.0;;
48679;SDS011;34475;51.658;5.634;2022-12-11T03:09:00;4.1;;;4.0;;
48679;SDS011;34475;51.658;5.634;2022-12-11T03:10:00;4.1;;;4.0;;
48679;SDS011;34475;51.658;5.634;2022-12-11T03:11:00;4.1;;;4.0;;
48679;SDS011;34475;51.658;5.634;2022-12-11T03:12:00;4.1;;;4.0;;
48679;SDS011;34475;51.658;5.634;2022-12-11T03:13:01;4.1;;;4.0;;
48679;SDS011;34475;51.658;5.634;2022-12-11T03:14:02;4.1;;;4.0;;
48679;SDS011;34475;51.658;5.634;2022-12-11T03:15:03;4.1;;;4.0;;
48679;SDS011;34475;51.658;5.634;2022-12-11T03:16:12;4.1;;;4.0;;
48679;SDS011;34475;51.658;5.634;2022-12-11T03:17:04;4.1;;;4.0;;
48679;SDS011;34475;51.658;5.634;2022-12-11T03:18:13;4.1;;;4.0;;
48679;SDS011;34475;51.658;5.634;2022-12-11T03:19:10;4.1;;;4.0;;
48679;SDS011;34475;51.658;5.634;2022-12-11T03:20:06;4.1;;;4.0;;
48679;SDS011;34475;51.658;5.634;2022-12-11T03:21:15;4.1;;;4.0;;
48679;SDS011;34475;51.658;5.634;2022-12-11T03:22:09;4.1;;;4.0;;
48679;SDS011;34475;51.658;5.634;2022-12-11T03:23:07;4.1;;;4.0;;
48679;SDS011;34475;51.658;5.634;2022-12-11T03:24:06;4.1;;;4.0;;
48679;SDS011;34475;51.658;5.634;2022-12-11T03:25:04;4.1;;;4.0;;
48679;SDS011;34475;51.658;5.634;2022-12-11T03:26:04;4.1;;;4.0;;
48679;SDS011;34475;51.658;5.634;2022-12-11T03:27:15;3.3;;;3.2;;
48679;SDS011;34475;51.658;5.634;2022-12-11T03:28:09;3.3;;;3.2;;
48679;SDS011;34475;51.658;5.634;2022-12-11T03:29:05;3.3;;;3.2;;
48679;SDS011;34475;51.658;5.634;2022-12-11T03:30:07;3.3;;;3.2;;
48679;SDS011;34475;51.658;5.634;2022-12-11T03:31:05;3.3;;;3.2;;
48679;SDS011;34475;51.658;5.634;2022-12-11T03:32:07;3.3;;;3.2;;
48679;SDS011;34475;51.658;5.634;2022-12-11T03:33:04;3.3;;;3.2;;
48679;SDS011;34475;51.658;5.634;2022-12-11T03:34:07;3.3;;;3.2;;
48679;SDS011;34475;51.658;5.634;2022-12-11T03:35:07;3.3;;;3.2;;
48679;SDS011;34475;51.658;5.634;2022-12-11T03:36:07;3.3;;;3.2;;
48679;SDS011;34475;51.658;5.634;2022-12-11T03:37:02;3.3;;;3.2;;
48679;SDS011;34475;51.658;5.634;2022-12-11T03:38:05;3.3;;;3.2;;
48679;SDS011;34475;51.658;5.634;2022-12-11T03:39:05;3.3;;;3.2;;
48679;SDS011;34475;51.658;5.634;2022-12-11T03:40:05;3.3;;;3.2;;
48679;SDS011;34475;51.658;5.634;2022-12-11T03:41:03;3.3;;;3.2;;
48679;SDS011;34475;51.658;5.634;2022-12-11T03:42:03;3.3;;;3.2;;
48679;SDS011;34475;51.658;5.634;2022-12-11T03:43:02;3.3;;;3.2;;
48679;SDS011;34475;51.658;5.634;2022-12-11T03:44:00;3.3;;;3.2;;
48679;SDS011;34475;51.658;5.634;2022-12-11T03:45:02;3.3;;;3.2;;
48679;SDS011;34475;51.658;5.634;2022-12-11T03:46:01;3.3;;;3.2;;
48679;SDS011;34475;51.658;5.634;2022-12-11T03:47:03;3.0;;;2.9;;
48679;SDS011;34475;51.658;5.634;2022-12-11T03:48:01;3.0;;;2.9;;
48679;SDS011;34475;51.658;5.634;2022-12-11T03:49:05;3.0;;;2.9;;
48679;SDS011;34475;51.658;5.634;2022-12-11T03:50:01;3.0;;;2.9;;
48679;SDS011;34475;51.658;5.634;2022-12-11T03:51:04;3.0;;;2.9;;
48679;SDS011;34475;51.658;5.634;2022-12-11T03:52:02;3.0;;;2.9;;
48679;SDS011;34475;51.658;5.634;2022-12-11T03:53:02;3.0;;;2.9;;
48679;SDS011;34475;51.658;5.634;2022-12-11T03:54:01;3.0;;;2.9;;
48679;SDS011;34475;51.658;5.634;2022-12-11T03:55:02;3.0;;;2.9;;
48679;SDS011;34475;51.658;5.634;2022-12-11T03:56:02;3.0;;;2.9;;
48679;SDS011;34475;51.658;5.634;2022-12-11T03:57:03;3.0;;;2.9;;
48679;SDS011;34475;51.658;5.634;2022-12-11T03:58:01;3.0;;;2.9;;
48679;SDS011;34475;51.658;5.634;2022-12-11T03:59:00;3.0;;;2.9;;
48679;SDS011;34475;51.658;5.634;2022-12-11T04:00:04;3.0;;;2.9;;
48679;SDS011;34475;51.658;5.634;2022-12-11T04:01:01;3.0;;;2.9;;
48679;SDS011;34475;51.658;5.634;2022-12-11T04:02:00;3.0;;;2.9;;
48679;SDS011;34475;51.658;5.634;2022-12-11T04:03:10;3.0;;;2.9;;
48679;SDS011;34475;51.658;5.634;2022-12-11T04:04:00;3.0;;;2.9;;
48679;SDS011;34475;51.658;5.634;2022-12-11T04:05:00;3.0;;;2.9;;
48679;SDS011;34475;51.658;5.634;2022-12-11T04:06:00;3.0;;;2.9;;
48679;SDS011;34475;51.658;5.634;2022-12-11T04:07:00;3.3;;;3.2;;
48679;SDS011;34475;51.658;5.634;2022-12-11T04:08:01;3.3;;;3.2;;
48679;SDS011;34475;51.658;5.634;2022-12-11T04:09:00;3.3;;;3.2;;
48679;SDS011;34475;51.658;5.634;2022-12-11T04:10:01;3.3;;;3.2;;
48679;SDS011;34475;51.658;5.634;2022-12-11T04:11:11;3.3;;;3.2;;
48679;SDS011;34475;51.658;5.634;2022-12-11T04:12:00;3.3;;;3.2;;
48679;SDS011;34475;51.658;5.634;2022-12-11T04:13:00;3.3;;;3.2;;
48679;SDS011;34475;51.658;5.634;2022-12-11T04:14:12;3.3;;;3.2;;
48679;SDS011;34475;51.658;5.634;2022-12-11T04:15:00;3.3;;;3.2;;
48679;SDS011;34475;51.658;5.634;2022-12-11T04:16:00;3.3;;;3.2;;
48679;SDS011;34475;51.658;5.634;2022-12-11T04:17:00;3.3;;;3.2;;
48679;SDS011;34475;51.658;5.634;2022-12-11T04:18:10;3.3;;;3.2;;
48679;SDS011;34475;51.658;5.634;2022-12-11T04:19:10;3.3;;;3.2;;
48679;SDS011;34475;51.658;5.634;2022-12-11T04:20:10;3.3;;;3.2;;
48679;SDS011;34475;51.658;5.634;2022-12-11T04:21:10;3.3;;;3.2;;
48679;SDS011;34475;51.658;5.634;2022-12-11T04:22:11;3.3;;;3.2;;
48679;SDS011;34475;51.658;5.634;2022-12-11T04:23:15;3.3;;;3.2;;
48679;SDS011;34475;51.658;5.634;2022-12-11T04:24:10;3.3;;;3.2;;
48679;SDS011;34475;51.658;5.634;2022-12-11T04:25:02;3.3;;;3.2;;
48679;SDS011;34475;51.658;5.634;2022-12-11T04:26:10;3.3;;;3.2;;
48679;SDS011;34475;51.658;5.634;2022-12-11T04:27:00;3.6;;;3.5;;
48679;SDS011;34475;51.658;5.634;2022-12-11T04:28:00;3.6;;;3.5;;
48679;SDS011;34475;51.658;5.634;2022-12-11T04:29:00;3.6;;;3.5;;
48679;SDS011;34475;51.658;5.634;2022-12-11T04:30:02;3.6;;;3.5;;
48679;SDS011;34475;51.658;5.634;2022-12-11T04:31:01;3.6;;;3.5;;
48679;SDS011;34475;51.658;5.634;2022-12-11T04:32:00;3.6;;;3.5;;
48679;SDS011;34475;51.658;5.634;2022-12-11T04:33:00;3.6;;;3.5;;
48679;SDS011;34475;51.658;5.634;2022-12-11T04:34:00;3.6;;;3.5;;
48679;SDS011;34475;51.658;5.634;2022-12-11T04:35:00;3.6;;;3.5;;
48679;SDS011;34475;51.658;5.634;2022-12-11T04:36:00;3.6;;;3.5;;
48679;SDS011;34475;51.658;5.634;2022-12-11T04:37:00;3.6;;;3.5;;
48679;SDS011;34475;51.658;5.634;2022-12-11T04:38:00;3.6;;;3.5;;
48679;SDS011;34475;51.658;5.634;2022-12-11T04:39:00;3.6;;;3.5;;
48679;SDS011;34475;51.658;5.634;2022-12-11T04:40:00;3.6;;;3.5;;
48679;SDS011;34475;51.658;5.634;2022-12-11T04:41:03;3.6;;;3.5;;
48679;SDS011;34475;51.658;5.634;2022-12-11T04:42:00;3.6;;;3.5;;
48679;SDS011;34475;51.658;5.634;2022-12-11T04:43:00;3.6;;;3.5;;
48679;SDS011;34475;51.658;5.634;2022-12-11T04:44:00;3.6;;;3.5;;
48679;SDS011;34475;51.658;5.634;2022-12-11T04:45:00;3.6;;;3.5;;
48679;SDS011;34475;51.658;5.634;2022-12-11T04:46:02;3.6;;;3.5;;
48679;SDS011;34475;51.658;5.634;2022-12-11T04:47:00;3.4;;;3.3;;
48679;SDS011;34475;51.658;5.634;2022-12-11T04:48:00;3.4;;;3.3;;
48679;SDS011;34475;51.658;5.634;2022-12-11T04:49:00;3.4;;;3.3;;
48679;SDS011;34475;51.658;5.634;2022-12-11T04:50:01;3.4;;;3.3;;
48679;SDS011;34475;51.658;5.634;2022-12-11T04:51:00;3.4;;;3.3;;
48679;SDS011;34475;51.658;5.634;2022-12-11T04:52:01;3.4;;;3.3;;
48679;SDS011;34475;51.658;5.634;2022-12-11T04:53:00;3.4;;;3.3;;
48679;SDS011;34475;51.658;5.634;2022-12-11T04:54:00;3.4;;;3.3;;
48679;SDS011;34475;51.658;5.634;2022-12-11T04:55:02;3.4;;;3.3;;
48679;SDS011;34475;51.658;5.634;2022-12-11T04:56:03;3.4;;;3.3;;
48679;SDS011;34475;51.658;5.634;2022-12-11T04:57:00;3.4;;;3.3;;
48679;SDS011;34475;51.658;5.634;2022-12-11T04:58:00;3.4;;;3.3;;
48679;SDS011;34475;51.658;5.634;2022-12-11T04:59:00;3.4;;;3.3;;
48679;SDS011;34475;51.658;5.634;2022-12-11T05:00:01;3.4;;;3.3;;
48679;SDS011;34475;51.658;5.634;2022-12-11T05:01:06;3.4;;;3.3;;
48679;SDS011;34475;51.658;5.634;2022-12-11T05:02:00;3.4;;;3.3;;
48679;SDS011;34475;51.658;5.634;2022-12-11T05:03:00;3.4;;;3.3;;
48679;SDS011;34475;51.658;5.634;2022-12-11T05:04:00;3.4;;;3.3;;
48679;SDS011;34475;51.658;5.634;2022-12-11T05:05:02;3.4;;;3.3;;
48679;SDS011;34475;51.658;5.634;2022-12-11T05:06:00;3.4;;;3.3;;
48679;SDS011;34475;51.658;5.634;2022-12-11T05:07:01;3.3;;;3.2;;
48679;SDS011;34475;51.658;5.634;2022-12-11T05:08:00;3.3;;;3.2;;
48679;SDS011;34475;51.658;5.634;2022-12-11T05:09:00;3.3;;;3.2;;
48679;SDS011;34475;51.658;5.634;2022-12-11T05:10:00;3.3;;;3.2;;
48679;SDS011;34475;51.658;5.634;2022-12-11T05:11:02;3.3;;;3.2;;
48679;SDS011;34475;51.658;5.634;2022-12-11T05:12:01;3.3;;;3.2;;
48679;SDS011;34475;51.658;5.634;2022-12-11T05:13:00;3.3;;;3.2;;
48679;SDS011;34475;51.658;5.634;2022-12-11T05:14:00;3.3;;;3.2;;
48679;SDS011;34475;51.658;5.634;2022-12-11T05:15:00;3.3;;;3.2;;
48679;SDS011;34475;51.658;5.634;2022-12-11T05:16:04;3.3;;;3.2;;
48679;SDS011;34475;51.658;5.634;2022-12-11T05:17:00;3.3;;;3.2;;
48679;SDS011;34475;51.658;5.634;2022-12-11T05:18:00;3.3;;;3.2;;
48679;SDS011;34475;51.658;5.634;2022-12-11T05:19:00;3.3;;;3.2;;
48679;SDS011;34475;51.658;5.634;2022-12-11T05:20:00;3.3;;;3.2;;
48679;SDS011;34475;51.658;5.634;2022-12-11T05:21:04;3.3;;;3.2;;
48679;SDS011;34475;51.658;5.634;2022-12-11T05:22:00;3.3;;;3.2;;
48679;SDS011;34475;51.658;5.634;2022-12-11T05:23:00;3.3;;;3.2;;
48679;SDS011;34475;51.658;5.634;2022-12-11T05:24:00;3.3;;;3.2;;
48679;SDS011;34475;51.658;5.634;2022-12-11T05:25:00;3.3;;;3.2;;
48679;SDS011;34475;51.658;5.634;2022-12-11T05:26:03;3.3;;;3.2;;
48679;SDS011;34475;51.658;5.634;2022-12-11T05:27:00;3.2;;;3.1;;
48679;SDS011;34475;51.658;5.634;2022-12-11T05:28:00;3.2;;;3.1;;
48679;SDS011;34475;51.658;5.634;2022-12-11T05:29:00;3.2;;;3.1;;
48679;SDS011;34475;51.658;5.634;2022-12-11T05:30:00;3.2;;;3.1;;
48679;SDS011;34475;51.658;5.634;2022-12-11T05:31:03;3.2;;;3.1;;
48679;SDS011;34475;51.658;5.634;2022-12-11T05:32:00;3.2;;;3.1;;
48679;SDS011;34475;51.658;5.634;2022-12-11T05:33:00;3.2;;;3.1;;
48679;SDS011;34475;51.658;5.634;2022-12-11T05:34:00;3.2;;;3.1;;
48679;SDS011;34475;51.658;5.634;2022-12-11T05:35:00;3.2;;;3.1;;
48679;SDS011;34475;51.658;5.634;2022-12-11T05:36:00;3.2;;;3.1;;
48679;SDS011;34475;51.658;5.634;2022-12-11T05:37:01;3.2;;;3.1;;
48679;SDS011;34475;51.658;5.634;2022-12-11T05:38:00;3.2;;;3.1;;
48679;SDS011;34475;51.658;5.634;2022-12-11T05:39:02;3.2;;;3.1;;
48679;SDS011;34475;51.658;5.634;2022-12-11T05:40:01;3.2;;;3.1;;
48679;SDS011;34475;51.658;5.634;2022-12-11T05:41:03;3.2;;;3.1;;
48679;SDS011;34475;51.658;5.634;2022-12-11T05:42:00;3.2;;;3.1;;
48679;SDS011;34475;51.658;5.634;2022-12-11T05:43:00;3.2;;;3.1;;
48679;SDS011;34475;51.658;5.634;2022-12-11T05:44:00;3.2;;;3.1;;
48679;SDS011;34475;51.658;5.634;2022-12-11T05:45:00;3.2;;;3.1;;
48679;SDS011;34475;51.658;5.634;2022-12-11T05:46:08;3.1;;;3.0;;
48679;SDS011;34475;51.658;5.634;2022-12-11T05:47:00;3.1;;;3.0;;
48679;SDS011;34475;51.658;5.634;2022-12-11T05:48:00;3.1;;;3.0;;
48679;SDS011;34475;51.658;5.634;2022-12-11T05:49:01;3.1;;;3.0;;
48679;SDS011;34475;51.658;5.634;2022-12-11T05:50:00;3.1;;;3.0;;
48679;SDS011;34475;51.658;5.634;2022-12-11T05:51:01;3.1;;;3.0;;
48679;SDS011;34475;51.658;5.634;2022-12-11T05:52:00;3.1;;;3.0;;
48679;SDS011;34475;51.658;5.634;2022-12-11T05:53:01;3.1;;;3.0;;
48679;SDS011;34475;51.658;5.634;2022-12-11T05:54:01;3.1;;;3.0;;
48679;SDS011;34475;51.658;5.634;2022-12-11T05:55:00;3.1;;;3.0;;
48679;SDS011;34475;51.658;5.634;2022-12-11T05:56:02;3.1;;;3.0;;
48679;SDS011;34475;51.658;5.634;2022-12-11T05:57:00;3.1;;;3.0;;
48679;SDS011;34475;51.658;5.634;2022-12-11T05:58:00;3.1;;;3.0;;
48679;SDS011;34475;51.658;5.634;2022-12-11T05:59:02;3.1;;;3.0;;
48679;SDS011;34475;51.658;5.634;2022-12-11T06:00:00;3.1;;;3.0;;
48679;SDS011;34475;51.658;5.634;2022-12-11T06:01:01;3.1;;;3.0;;
48679;SDS011;34475;51.658;5.634;2022-12-11T06:02:00;3.1;;;3.0;;
48679;SDS011;34475;51.658;5.634;2022-12-11T06:03:01;3.1;;;3.0;;
48679;SDS011;34475;51.658;5.634;2022-12-11T06:04:01;3.1;;;3.0;;
48679;SDS011;34475;51.658;5.634;2022-12-11T06:05:00;3.1;;;3.0;;
48679;SDS011;34475;51.658;5.634;2022-12-11T06:06:01;3.1;;;3.0;;
48679;SDS011;34475;51.658;5.634;2022-12-11T06:07:00;3.1;;;3.0;;
48679;SDS011;34475;51.658;5.634;2022-12-11T06:08:00;3.1;;;3.0;;
48679;SDS011;34475;51.658;5.634;2022-12-11T06:09:01;3.1;;;3.0;;
48679;SDS011;34475;51.658;5.634;2022-12-11T06:10:00;3.1;;;3.0;;
48679;SDS011;34475;51.658;5.634;2022-12-11T06:11:01;3.1;;;3.0;;
48679;SDS011;34475;51.658;5.634;2022-12-11T06:12:00;3.1;;;3.0;;
48679;SDS011;34475;51.658;5.634;2022-12-11T06:13:00;3.1;;;3.0;;
48679;SDS011;34475;51.658;5.634;2022-12-11T06:14:02;3.1;;;3.0;;
48679;SDS011;34475;51.658;5.634;2022-12-11T06:15:00;3.1;;;3.0;;
48679;SDS011;34475;51.658;5.634;2022-12-11T06:16:02;3.1;;;3.0;;
48679;SDS011;34475;51.658;5.634;2022-12-11T06:17:00;3.1;;;3.0;;
48679;SDS011;34475;51.658;5.634;2022-12-11T06:18:00;3.1;;;3.0;;
48679;SDS011;34475;51.658;5.634;2022-12-11T06:19:00;3.1;;;3.0;;
48679;SDS011;34475;51.658;5.634;2022-12-11T06:20:00;3.1;;;3.0;;
48679;SDS011;34475;51.658;5.634;2022-12-11T06:21:00;3.1;;;3.0;;
48679;SDS011;34475;51.658;5.634;2022-12-11T06:22:00;3.1;;;3.0;;